Time;durP1;ratioP1;P1;durP2;ratioP2;P2;SDS_P1;SDS_P2;PMS_P1;PMS_P2;Temp;Humidity;BMP_temperature;BMP_pressure;BME280_temperature;BME280_humidity;BME280_pressure;Samples;Min_cycle;Max_cycle;Signal;HPM_P1;HPM_P2
2020/12/28 00:01:45;;;;;;;3.72;1.10;;;;;;;0.80;100.00;95310.16;4880143;29;20626;-82
2020/12/28 00:04:48;;;;;;;0.30;0.30;;;;;;;0.85;100.00;95306.56;4880044;29;20125;-84
2020/12/28 00:07:52;;;;;;;9.30;1.02;;;;;;;0.81;100.00;95300.66;4879381;29;20060;-84
2020/12/28 00:10:55;;;;;;;1.05;0.57;;;;;;;0.84;100.00;95294.16;4879863;29;20051;-82
2020/12/28 00:13:57;;;;;;;8.68;0.63;;;;;;;0.77;100.00;95281.06;4868501;29;20406;-83
2020/12/28 00:17:00;;;;;;;1.30;1.00;;;;;;;0.63;100.00;95285.00;4868594;29;20409;-83
2020/12/28 00:20:03;;;;;;;2.75;0.68;;;;;;;0.42;100.00;95284.06;4880399;29;20146;-83
2020/12/28 00:23:06;;;;;;;0.52;0.52;;;;;;;0.28;100.00;95279.81;4880032;29;20044;-83
2020/12/28 00:26:10;;;;;;;10.63;2.95;;;;;;;0.16;100.00;95283.94;4879351;29;20139;-83
2020/12/28 00:29:14;;;;;;;0.55;0.55;;;;;;;0.08;100.00;95283.06;4868261;29;20584;-82
2020/12/28 00:32:17;;;;;;;1.30;0.43;;;;;;;-0.10;100.00;95263.38;4879587;29;20074;-82
2020/12/28 00:35:19;;;;;;;0.43;0.43;;;;;;;-0.22;100.00;95261.31;4868398;29;20468;-82
2020/12/28 00:38:22;;;;;;;2.10;0.88;;;;;;;-0.33;100.00;95262.19;4879471;29;20039;-83
2020/12/28 00:41:25;;;;;;;0.77;0.60;;;;;;;-0.40;100.00;95268.22;4868260;29;20097;-83
2020/12/28 00:44:28;;;;;;;1.42;0.50;;;;;;;-0.48;100.00;95261.88;4874541;29;20144;-82
2020/12/28 00:47:31;;;;;;;0.38;0.38;;;;;;;-0.59;100.00;95258.50;4879172;29;20084;-82
2020/12/28 00:50:34;;;;;;;1.25;1.15;;;;;;;-0.68;100.00;95265.06;4879335;29;20074;-83
2020/12/28 00:53:37;;;;;;;0.50;0.30;;;;;;;-0.74;100.00;95266.38;4879256;29;20414;-83
2020/12/28 00:56:40;;;;;;;1.67;1.55;;;;;;;-0.81;100.00;95264.94;4878354;29;20086;-84
2020/12/28 00:59:43;;;;;;;0.40;0.40;;;;;;;-0.88;100.00;95255.31;4878515;29;20092;-84
2020/12/28 01:02:46;;;;;;;1.75;0.85;;;;;;;-0.87;100.00;95264.25;4879028;29;20064;-83
2020/12/28 01:05:49;;;;;;;1.30;1.02;;;;;;;-0.93;100.00;95258.09;4879127;29;20060;-83
2020/12/28 01:08:52;;;;;;;0.45;0.45;;;;;;;-0.91;100.00;95263.81;4878381;29;20097;-83
2020/12/28 01:11:56;;;;;;;0.77;0.77;;;;;;;-0.87;100.00;95264.25;4878019;29;20174;-82
2020/12/28 01:14:59;;;;;;;0.70;0.70;;;;;;;-0.86;100.00;95254.81;4877295;29;20109;-83
2020/12/28 01:18:02;;;;;;;0.50;0.50;;;;;;;-0.82;100.00;95255.25;4878433;29;20093;-83
2020/12/28 01:21:05;;;;;;;5.88;1.20;;;;;;;-0.77;100.00;95252.50;4878413;29;20411;-84
2020/12/28 01:24:08;;;;;;;0.60;0.60;;;;;;;-0.74;100.00;95256.19;4878269;29;20112;-83
2020/12/28 01:27:11;;;;;;;0.40;0.40;;;;;;;-0.72;100.00;95231.84;4878201;29;20075;-85
2020/12/28 01:30:14;;;;;;;1.45;1.05;;;;;;;-0.70;100.00;95243.00;4878132;29;20048;-83
2020/12/28 01:33:17;;;;;;;5.35;0.57;;;;;;;-0.72;100.00;95231.09;4877895;29;20047;-83
2020/12/28 01:36:19;;;;;;;1.17;0.88;;;;;;;-0.78;100.00;95231.88;4878142;29;20185;-85
2020/12/28 01:39:22;;;;;;;1.20;0.80;;;;;;;-0.79;100.00;95238.59;4877516;29;20135;-84
2020/12/28 01:42:25;;;;;;;0.43;0.25;;;;;;;-0.86;100.00;95243.88;4879369;29;20414;-84
2020/12/28 01:45:28;;;;;;;1.67;0.80;;;;;;;-0.89;100.00;95239.47;4860730;29;20045;-84
2020/12/28 01:48:31;;;;;;;0.73;0.73;;;;;;;-0.91;100.00;95231.06;4848541;29;20411;-84
2020/12/28 01:51:35;;;;;;;0.82;0.82;;;;;;;-0.96;100.00;95234.56;4849194;29;20510;-84
2020/12/28 01:54:37;;;;;;;0.80;0.80;;;;;;;-1.05;100.00;95243.84;4860274;29;20048;-85
2020/12/28 01:57:40;;;;;;;0.93;0.85;;;;;;;-1.12;100.00;95243.63;4860297;29;20559;-84
2020/12/28 02:00:43;;;;;;;0.50;0.50;;;;;;;-1.19;100.00;95255.13;4848928;29;20045;-84
2020/12/28 02:03:46;;;;;;;1.17;1.15;;;;;;;-1.26;100.00;95242.78;4860209;29;20137;-84
2020/12/28 02:06:50;;;;;;;3.58;2.33;;;;;;;-1.28;100.00;95242.56;4860199;29;20052;-84
2020/12/28 02:09:54;;;;;;;0.50;0.50;;;;;;;-1.32;100.00;95250.25;4860159;29;20181;-83
2020/12/28 02:12:57;;;;;;;1.85;1.15;;;;;;;-1.32;100.00;95252.28;4860162;29;20052;-83
2020/12/28 02:16:00;;;;;;;0.50;0.50;;;;;;;-1.31;100.00;95237.38;4859963;29;20101;-84
2020/12/28 02:19:03;;;;;;;0.63;0.47;;;;;;;-1.30;100.00;95238.84;4848511;29;20215;-84
2020/12/28 02:22:07;;;;;;;0.63;0.60;;;;;;;-1.25;100.00;95235.31;4848103;29;20052;-84
2020/12/28 02:25:10;;;;;;;0.55;0.52;;;;;;;-1.21;100.00;95235.81;4860095;29;20067;-83
2020/12/28 02:28:13;;;;;;;6.80;0.98;;;;;;;-1.12;100.00;95238.19;4848690;29;20064;-83
2020/12/28 02:31:15;;;;;;;1.48;1.38;;;;;;;-1.01;100.00;95235.34;4859675;29;20049;-84
2020/12/28 02:34:18;;;;;;;13.00;1.02;;;;;;;-0.99;100.00;95233.59;4848714;29;20052;-84
2020/12/28 02:37:21;;;;;;;0.50;0.47;;;;;;;-0.97;100.00;95236.56;4847855;29;20072;-83
2020/12/28 02:40:24;;;;;;;3.80;1.17;;;;;;;-0.86;100.00;95225.53;4860096;29;20097;-82
2020/12/28 02:43:27;;;;;;;1.58;1.20;;;;;;;-0.80;100.00;95231.66;4866659;29;20052;-83
2020/12/28 02:46:30;;;;;;;7.63;1.48;;;;;;;-0.71;100.00;95233.31;4878344;29;20048;-83
2020/12/28 02:49:32;;;;;;;4.82;0.73;;;;;;;-0.65;100.00;95225.78;4880954;29;20057;-83
2020/12/28 02:52:35;;;;;;;0.85;0.85;;;;;;;-0.64;100.00;95210.88;4882841;29;20125;-83
2020/12/28 02:55:38;;;;;;;1.27;1.00;;;;;;;-0.63;100.00;95206.91;4889475;29;20056;-83
2020/12/28 02:58:41;;;;;;;1.80;0.90;;;;;;;-0.59;100.00;95201.91;4877682;29;20052;-83
2020/12/28 03:01:44;;;;;;;0.73;0.73;;;;;;;-0.59;100.00;95201.91;4882804;29;20109;-84
2020/12/28 03:04:47;;;;;;;6.55;1.42;;;;;;;-0.57;100.00;95201.38;4881652;29;20124;-84
2020/12/28 03:07:50;;;;;;;9.57;1.27;;;;;;;-0.56;100.00;95192.66;4881406;29;20462;-85
2020/12/28 03:10:52;;;;;;;1.33;1.27;;;;;;;-0.52;100.00;95184.91;4881273;29;20410;-85
2020/12/28 03:13:56;;;;;;;1.73;1.58;;;;;;;-0.52;100.00;95184.91;4881242;29;20096;-84
2020/12/28 03:16:58;;;;;;;18.60;2.10;;;;;;;-0.52;100.00;95184.19;4870132;29;20116;-84
2020/12/28 03:20:01;;;;;;;1.75;1.65;;;;;;;-0.47;100.00;95186.09;4869947;29;20126;-85
2020/12/28 03:23:04;;;;;;;1.83;1.10;;;;;;;-0.42;100.00;95180.56;4881657;29;20458;-84
2020/12/28 03:26:07;;;;;;;0.47;0.47;;;;;;;-0.40;100.00;95190.97;4881375;29;20043;-84
2020/12/28 03:29:10;;;;;;;0.77;0.77;;;;;;;-0.40;100.00;95180.78;4869925;29;20127;-84
2020/12/28 03:32:13;;;;;;;2.92;1.65;;;;;;;-0.37;100.00;95177.00;4870006;29;20216;-84
2020/12/28 03:35:16;;;;;;;1.13;1.13;;;;;;;-0.34;100.00;95173.25;4881122;29;20040;-84
2020/12/28 03:38:19;;;;;;;1.15;1.15;;;;;;;-0.32;100.00;95178.94;4881113;29;20109;-84
2020/12/28 03:41:22;;;;;;;1.33;1.23;;;;;;;-0.29;100.00;95180.66;4869367;29;20561;-83
2020/12/28 03:44:25;;;;;;;0.75;0.75;;;;;;;-0.26;100.00;95176.88;4875598;29;20051;-84
2020/12/28 03:47:27;;;;;;;0.75;0.75;;;;;;;-0.25;100.00;95170.16;4880731;29;20089;-83
2020/12/28 03:50:30;;;;;;;2.60;1.73;;;;;;;-0.21;100.00;95175.31;4880820;29;20422;-83
2020/12/28 03:53:33;;;;;;;2.47;0.70;;;;;;;-0.18;100.00;95175.03;4879721;29;20139;-83
2020/12/28 03:56:36;;;;;;;1.08;1.00;;;;;;;-0.19;100.00;95168.09;4880262;29;20554;-84
2020/12/28 03:59:39;;;;;;;0.82;0.82;;;;;;;-0.18;100.00;95169.56;4880610;29;20148;-83
2020/12/28 04:02:42;;;;;;;2.13;1.33;;;;;;;-0.18;100.00;95172.31;4880283;29;20069;-83
2020/12/28 04:05:45;;;;;;;0.63;0.63;;;;;;;-0.18;100.00;95169.56;4880456;29;20052;-84
2020/12/28 04:08:48;;;;;;;2.97;1.38;;;;;;;-0.18;100.00;95172.31;4879570;29;20048;-84
2020/12/28 04:11:50;;;;;;;8.55;1.95;;;;;;;-0.17;100.00;95165.56;4879504;29;20127;-85
2020/12/28 04:14:53;;;;;;;1.88;1.75;;;;;;;-0.16;100.00;95172.53;4880402;29;20217;-84
2020/12/28 04:17:56;;;;;;;1.10;1.10;;;;;;;-0.19;100.00;95173.56;4879652;29;20092;-83
2020/12/28 04:20:59;;;;;;;1.38;1.23;;;;;;;-0.19;100.00;95181.75;4879339;29;20568;-84
2020/12/28 04:24:02;;;;;;;2.15;1.95;;;;;;;-0.22;100.00;95179.31;4879967;29;20052;-83
2020/12/28 04:27:05;;;;;;;2.45;1.55;;;;;;;-0.25;100.00;95185.81;4879137;29;20052;-83
2020/12/28 04:30:09;;;;;;;1.83;1.73;;;;;;;-0.28;100.00;95186.88;4879925;29;20406;-83
2020/12/28 04:33:12;;;;;;;3.60;2.10;;;;;;;-0.31;100.00;95183.16;4879822;29;20044;-83
2020/12/28 04:36:15;;;;;;;1.33;1.25;;;;;;;-0.33;100.00;95191.16;4879801;29;20080;-84
2020/12/28 04:39:18;;;;;;;1.60;1.27;;;;;;;-0.34;100.00;95184.19;4879086;29;20056;-84
2020/12/28 04:42:29;;;;;;;1.65;1.10;;;;;;;-0.37;100.00;95185.22;4879049;29;20048;-83
2020/12/28 04:45:32;;;;;;;1.25;1.20;;;;;;;-0.38;100.00;95186.47;4861162;29;20521;-83
2020/12/28 04:48:34;;;;;;;0.95;0.95;;;;;;;-0.39;100.00;95187.72;4849287;29;20074;-83
2020/12/28 04:51:38;;;;;;;3.90;1.98;;;;;;;-0.37;100.00;95187.94;4860891;29;20052;-82
2020/12/28 04:54:42;;;;;;;1.30;0.90;;;;;;;-0.37;100.00;95200.88;4849300;29;20057;-82
2020/12/28 04:57:46;;;;;;;1.77;1.65;;;;;;;-0.41;100.00;95190.22;4860556;29;20064;-81
2020/12/28 05:01:09;;;;;;;1.52;1.08;;;;;;;-0.40;100.00;95196.44;4860398;29;20159;-81
2020/12/28 05:04:11;;;;;;;1.85;1.65;;;;;;;-0.39;100.00;95198.66;4860862;29;20139;-81
2020/12/28 05:07:15;;;;;;;1.85;1.60;;;;;;;-0.39;100.00;95197.94;4860593;29;20052;-84
2020/12/28 05:10:26;;;;;;;3.75;0.93;;;;;;;-0.38;100.00;95199.41;4860744;29;20426;-81
2020/12/28 05:13:30;;;;;;;4.93;2.15;;;;;;;-0.39;100.00;95209.59;4860505;29;20546;-81
2020/12/28 05:16:33;;;;;;;5.28;1.00;;;;;;;-0.41;100.00;95201.16;4860295;29;20052;-80
2020/12/28 05:19:37;;;;;;;2.22;2.05;;;;;;;-0.40;100.00;95205.38;4859955;29;20045;-80
2020/12/28 05:22:39;;;;;;;2.42;1.48;;;;;;;-0.40;100.00;95208.13;4860039;29;20064;-80
2020/12/28 05:25:47;;;;;;;1.40;1.33;;;;;;;-0.39;100.00;95209.59;4860275;29;20671;-80
2020/12/28 05:28:55;;;;;;;4.10;1.55;;;;;;;-0.38;100.00;95216.53;4848775;29;20045;-80
2020/12/28 05:31:58;;;;;;;2.10;0.98;;;;;;;-0.39;100.00;95219.78;4848885;29;20605;-80
2020/12/28 05:35:04;;;;;;;4.65;1.63;;;;;;;-0.41;100.00;95217.56;4860125;29;20559;-80
2020/12/28 05:38:08;;;;;;;1.13;0.77;;;;;;;-0.42;100.00;95221.56;4860150;29;20053;-79
2020/12/28 05:41:12;;;;;;;0.98;0.80;;;;;;;-0.42;100.00;95216.09;4860390;29;20068;-80
2020/12/28 05:44:15;;;;;;;2.35;1.33;;;;;;;-0.39;100.00;95214.34;4872849;29;20452;-79
2020/12/28 05:47:18;;;;;;;4.20;1.52;;;;;;;-0.38;100.00;95224.00;4878607;29;20462;-80
2020/12/28 05:50:23;;;;;;;3.78;1.52;;;;;;;-0.37;100.00;95231.66;4878704;29;20411;-79
2020/12/28 05:53:27;;;;;;;1.60;0.98;;;;;;;-0.35;100.00;95229.19;4878545;29;20047;-80
2020/12/28 05:56:29;;;;;;;0.90;0.73;;;;;;;-0.33;100.00;95243.06;4878508;29;20646;-80
2020/12/28 05:59:33;;;;;;;0.43;0.43;;;;;;;-0.30;100.00;95239.28;4878487;29;20191;-79
2020/12/28 06:02:39;;;;;;;0.63;0.57;;;;;;;-0.27;100.00;95243.72;4878545;29;20463;-79
2020/12/28 06:05:50;;;;;;;0.40;0.30;;;;;;;-0.27;100.00;95241.00;4878170;29;20048;-79
2020/12/28 06:08:54;;;;;;;0.50;0.50;;;;;;;-0.26;100.00;95261.59;4878283;29;20099;-80
2020/12/28 06:12:07;;;;;;;2.30;0.70;;;;;;;-0.28;100.00;95263.38;4878443;29;20132;-79
2020/12/28 06:15:20;;;;;;;2.50;1.80;;;;;;;-0.29;100.00;95268.09;4866950;29;20510;-79
2020/12/28 06:18:23;;;;;;;2.92;0.80;;;;;;;-0.29;100.00;95272.81;4878317;29;20047;-78
2020/12/28 06:21:37;;;;;;;1.67;1.52;;;;;;;-0.30;100.00;95276.78;4878380;29;20100;-78
2020/12/28 06:24:39;;;;;;;1.45;0.63;;;;;;;-0.29;100.00;95289.22;4880360;29;20047;-79
2020/12/28 06:27:47;;;;;;;0.57;0.57;;;;;;;-0.29;100.00;95300.16;4881823;29;20638;-79
2020/12/28 06:30:50;;;;;;;1.38;0.95;;;;;;;-0.30;100.00;95302.13;4882038;29;20048;-79
2020/12/28 06:33:53;;;;;;;1.92;0.85;;;;;;;-0.30;100.00;95304.13;4881881;29;20096;-79
2020/12/28 06:37:00;;;;;;;0.95;0.90;;;;;;;-0.32;100.00;95307.38;4881878;29;20144;-79
2020/12/28 06:40:03;;;;;;;2.55;0.65;;;;;;;-0.32;100.00;95326.50;4882112;29;20123;-79
2020/12/28 06:43:16;;;;;;;0.55;0.55;;;;;;;-0.32;100.00;95331.97;4881547;29;20509;-80
2020/12/28 06:46:23;;;;;;;3.42;1.02;;;;;;;-0.33;100.00;95335.22;4881612;29;20052;-79
2020/12/28 06:49:26;;;;;;;2.28;1.45;;;;;;;-0.34;100.00;95339.94;4881416;29;20407;-79
2020/12/28 06:52:29;;;;;;;1.45;0.75;;;;;;;-0.33;100.00;95354.34;4881560;29;20093;-79
2020/12/28 06:55:32;;;;;;;1.15;0.47;;;;;;;-0.32;100.00;95362.03;4881363;29;20047;-78
2020/12/28 06:58:35;;;;;;;0.95;0.82;;;;;;;-0.32;100.00;95367.50;4879256;29;20562;-79
2020/12/28 07:01:44;;;;;;;1.10;0.82;;;;;;;-0.32;100.00;95372.97;4879587;29;20541;-78
2020/12/28 07:04:47;;;;;;;1.55;1.08;;;;;;;-0.30;100.00;95373.19;4881049;29;20410;-78
2020/12/28 07:07:50;;;;;;;2.95;1.20;;;;;;;-0.30;100.00;95386.13;4880768;29;20140;-78
2020/12/28 07:11:01;;;;;;;2.45;2.15;;;;;;;-0.32;100.00;95399.53;4880932;29;20105;-78
2020/12/28 07:14:05;;;;;;;0.47;0.47;;;;;;;-0.34;100.00;95408.25;4880938;29;20101;-78
2020/12/28 07:17:08;;;;;;;2.60;1.88;;;;;;;-0.34;100.00;95408.25;4880669;29;20036;-79
2020/12/28 07:20:13;;;;;;;2.63;1.33;;;;;;;-0.32;100.00;95426.88;4880397;29;20051;-78
2020/12/28 07:23:16;;;;;;;1.45;1.27;;;;;;;-0.33;100.00;95426.16;4880693;29;20061;-78
2020/12/28 07:26:19;;;;;;;4.78;1.55;;;;;;;-0.33;100.00;95426.16;4880855;29;20387;-79
2020/12/28 07:29:22;;;;;;;1.58;1.15;;;;;;;-0.34;100.00;95423.91;4862089;29;20562;-78
2020/12/28 07:32:25;;;;;;;8.27;1.52;;;;;;;-0.32;100.00;95441.28;4861840;29;20045;-78
2020/12/28 07:35:28;;;;;;;1.08;1.08;;;;;;;-0.30;100.00;95446.22;4861173;29;20510;-79
2020/12/28 07:38:32;;;;;;;2.08;1.45;;;;;;;-0.31;100.00;95442.78;4861908;29;20052;-78
2020/12/28 07:41:35;;;;;;;2.75;1.58;;;;;;;-0.33;100.00;95442.56;4861518;29;20056;-78
2020/12/28 07:44:40;;;;;;;2.40;1.23;;;;;;;-0.34;100.00;95441.06;4870499;29;20040;-80
2020/12/28 07:47:43;;;;;;;3.92;1.75;;;;;;;-0.34;100.00;95457.47;4887812;29;20047;-80
2020/12/28 07:50:53;;;;;;;4.38;1.52;;;;;;;-0.35;100.00;95461.44;4889071;29;20108;-80
2020/12/28 07:54:04;;;;;;;3.40;1.77;;;;;;;-0.36;100.00;95462.69;4886123;29;20048;-81
2020/12/28 07:57:15;;;;;;;0.57;0.57;;;;;;;-0.38;100.00;95470.66;4898701;29;20060;-80
2020/12/28 08:00:20;;;;;;;1.10;1.08;;;;;;;-0.37;100.00;95469.41;4899017;29;20047;-80
2020/12/28 08:03:40;;;;;;;6.15;1.35;;;;;;;-0.37;100.00;95463.22;4899141;29;20108;-80
2020/12/28 08:06:42;;;;;;;1.83;0.75;;;;;;;-0.34;100.00;95473.09;4899606;29;20052;-80
2020/12/28 08:09:55;;;;;;;3.53;1.88;;;;;;;-0.33;100.00;95480.81;4899615;29;20409;-80
2020/12/28 08:12:59;;;;;;;4.28;1.98;;;;;;;-0.35;100.00;95483.31;4897127;29;20048;-80
2020/12/28 08:16:14;;;;;;;6.00;1.30;;;;;;;-0.34;100.00;95487.50;4896807;29;20090;-80
2020/12/28 08:19:28;;;;;;;0.60;0.60;;;;;;;-0.32;100.00;95493.22;4897696;29;20075;-80
2020/12/28 08:22:31;;;;;;;3.63;0.75;;;;;;;-0.31;100.00;95499.44;4897686;29;20513;-79
2020/12/28 08:25:36;;;;;;;2.60;1.38;;;;;;;-0.30;100.00;95501.63;4897882;29;20092;-79
2020/12/28 08:28:39;;;;;;;2.05;0.85;;;;;;;-0.28;100.00;95512.81;4898024;29;20055;-80
2020/12/28 08:31:42;;;;;;;1.52;1.38;;;;;;;-0.28;100.00;95521.00;4898090;29;20108;-79
2020/12/28 08:34:56;;;;;;;7.03;2.38;;;;;;;-0.28;100.00;95531.94;4898241;29;20539;-78
2020/12/28 08:38:02;;;;;;;5.03;2.90;;;;;;;-0.29;100.00;95540.66;4897716;29;20052;-78
2020/12/28 08:41:06;;;;;;;2.58;1.35;;;;;;;-0.27;100.00;95547.09;4885326;29;20055;-77
2020/12/28 08:44:08;;;;;;;6.32;1.77;;;;;;;-0.24;100.00;95545.34;4885741;29;20044;-77
2020/12/28 08:47:13;;;;;;;2.35;1.35;;;;;;;-0.18;100.00;95556.97;4879055;29;20044;-78
2020/12/28 08:50:16;;;;;;;5.15;2.55;;;;;;;-0.17;100.00;95564.66;4879359;29;20469;-79
2020/12/28 08:53:23;;;;;;;1.92;1.73;;;;;;;-0.15;100.00;95573.09;4878808;29;20056;-78
2020/12/28 08:56:25;;;;;;;4.50;2.33;;;;;;;-0.14;100.00;95580.06;4865644;29;20557;-78
2020/12/28 08:59:28;;;;;;;3.83;1.70;;;;;;;-0.12;100.00;95583.00;4878236;29;20112;-78
2020/12/28 09:02:32;;;;;;;1.80;1.67;;;;;;;-0.09;100.00;95587.44;4878899;29;20044;-79
2020/12/28 09:05:35;;;;;;;1.25;1.00;;;;;;;-0.08;100.00;95591.69;4867704;29;20056;-79
2020/12/28 09:08:38;;;;;;;8.43;1.42;;;;;;;-0.05;100.00;95601.63;4878587;29;20093;-79
2020/12/28 09:11:41;;;;;;;5.90;2.53;;;;;;;-0.04;100.00;95605.81;4878624;29;20052;-78
2020/12/28 09:14:44;;;;;;;3.45;2.20;;;;;;;0.00;100.00;95611.03;4866795;29;20139;-78
2020/12/28 09:17:47;;;;;;;2.22;1.65;;;;;;;0.01;100.00;95612.50;4878500;29;20047;-79
2020/12/28 09:20:50;;;;;;;2.75;1.13;;;;;;;0.03;100.00;95612.72;4879167;29;20055;-79
2020/12/28 09:23:53;;;;;;;6.63;1.65;;;;;;;0.04;100.00;95616.22;4879000;29;20060;-79
2020/12/28 09:26:57;;;;;;;4.95;1.70;;;;;;;0.07;100.00;95626.13;4879092;29;20402;-79
2020/12/28 09:29:59;;;;;;;1.05;0.90;;;;;;;0.10;100.00;95633.31;4878416;29;20136;-77
2020/12/28 09:33:02;;;;;;;7.32;2.17;;;;;;;0.11;100.00;95638.28;4877419;29;20067;-79
2020/12/28 09:36:05;;;;;;;2.25;1.05;;;;;;;0.17;100.00;95630.03;4877659;29;20043;-79
2020/12/28 09:39:08;;;;;;;4.85;0.95;;;;;;;0.20;100.00;95648.16;4877823;29;20048;-79
2020/12/28 09:42:11;;;;;;;3.38;1.25;;;;;;;0.21;100.00;95646.91;4876989;29;20526;-79
2020/12/28 09:48:36;;;;;;;5.90;1.95;;;;;;;0.27;100.00;95661.28;4877436;29;20040;-79
2020/12/28 09:51:39;;;;;;;2.40;1.55;;;;;;;0.36;100.00;95671.91;4877049;29;20056;-78
2020/12/28 09:54:42;;;;;;;3.03;2.05;;;;;;;0.37;100.00;95671.41;4878356;29;20093;-79
2020/12/28 09:57:45;;;;;;;2.22;1.10;;;;;;;0.43;100.00;95679.56;4878137;29;20049;-78
2020/12/28 10:00:47;;;;;;;3.13;2.17;;;;;;;0.46;100.00;95673.06;4882393;29;20100;-78
2020/12/28 10:03:50;;;;;;;5.03;1.17;;;;;;;0.49;100.00;95677.53;4882451;29;20048;-78
2020/12/28 10:06:53;;;;;;;4.03;1.92;;;;;;;0.49;100.00;95677.53;4882322;29;20570;-79
2020/12/28 10:09:56;;;;;;;12.85;1.30;;;;;;;0.50;100.00;95689.94;4882212;29;20516;-79
2020/12/28 10:12:59;;;;;;;8.20;2.67;;;;;;;0.51;100.00;95691.44;4882346;29;20044;-79
2020/12/28 10:16:01;;;;;;;2.95;1.55;;;;;;;0.54;100.00;95707.59;4882219;29;20056;-79
2020/12/28 10:19:04;;;;;;;2.88;1.48;;;;;;;0.56;100.00;95715.31;4882134;29;20128;-79
2020/12/28 10:22:07;;;;;;;11.50;2.90;;;;;;;0.57;100.00;95723.00;4881974;29;20113;-80
2020/12/28 10:25:10;;;;;;;1.95;1.63;;;;;;;0.57;100.00;95730.47;4882214;29;20079;-79
2020/12/28 10:28:13;;;;;;;6.22;2.38;;;;;;;0.59;100.00;95741.63;4882101;29;20544;-78
2020/12/28 10:31:17;;;;;;;8.63;2.30;;;;;;;0.62;100.00;95757.06;4881933;29;20200;-79
2020/12/28 10:34:20;;;;;;;10.82;2.85;;;;;;;0.65;100.00;95758.78;4881905;29;20064;-79
2020/12/28 10:37:24;;;;;;;2.45;1.42;;;;;;;0.70;100.00;95757.97;4882039;29;20076;-79
2020/12/28 10:40:27;;;;;;;2.75;0.95;;;;;;;0.72;100.00;95755.47;4882141;29;20055;-80
2020/12/28 10:43:29;;;;;;;4.22;1.27;;;;;;;0.73;100.00;95768.69;4881471;29;20093;-80
2020/12/28 10:46:36;;;;;;;4.18;1.77;;;;;;;0.72;100.00;95752.75;4870110;29;20104;-80
2020/12/28 10:49:39;;;;;;;3.10;1.83;;;;;;;0.74;100.00;95747.50;4881604;29;20097;-80
2020/12/28 10:52:41;;;;;;;1.05;1.05;;;;;;;0.73;100.00;95740.53;4881924;29;20464;-78
2020/12/28 10:55:45;;;;;;;4.00;0.95;;;;;;;0.77;100.00;95754.69;4881026;29;20072;-78
2020/12/28 10:58:48;;;;;;;3.75;1.35;;;;;;;0.82;100.00;95764.88;4881474;29;20096;-77
2020/12/28 11:01:55;;;;;;;2.40;1.08;;;;;;;0.83;100.00;95766.34;4881521;29;20140;-77
2020/12/28 11:04:58;;;;;;;4.43;2.05;;;;;;;0.86;100.00;95770.81;4882921;29;20136;-77
2020/12/28 11:08:01;;;;;;;6.13;2.72;;;;;;;0.87;100.00;95779.78;4862433;29;20114;-77
2020/12/28 11:11:03;;;;;;;3.88;2.50;;;;;;;0.88;100.00;95784.72;4862354;29;20052;-77
2020/12/28 11:14:07;;;;;;;1.27;0.90;;;;;;;0.83;100.00;95782.03;4862667;29;20675;-77
2020/12/28 11:17:09;;;;;;;3.25;1.27;;;;;;;0.79;100.00;95790.53;4862693;29;20093;-77
2020/12/28 11:20:12;;;;;;;7.55;1.38;;;;;;;0.69;100.00;95797.56;4878296;29;20052;-76
2020/12/28 11:23:15;;;;;;;6.25;2.90;;;;;;;0.62;100.00;95789.91;4881139;29;20052;-77
2020/12/28 11:26:19;;;;;;;6.82;2.17;;;;;;;0.54;100.00;95797.19;4881062;29;20093;-77
2020/12/28 11:29:21;;;;;;;0.95;0.75;;;;;;;0.48;100.00;95801.91;4880919;29;20056;-77
2020/12/28 11:32:24;;;;;;;0.98;0.90;;;;;;;0.41;100.00;95813.44;4881015;29;20109;-76
2020/12/28 11:35:29;;;;;;;3.15;1.15;;;;;;;0.38;100.00;95825.38;4880952;29;20124;-78
2020/12/28 11:38:32;;;;;;;1.60;0.93;;;;;;;0.33;100.00;95828.88;4880406;29;20113;-74
2020/12/28 11:41:34;;;;;;;2.17;1.98;;;;;;;0.29;100.00;95829.16;4880009;29;20079;-75
2020/12/28 11:44:37;;;;;;;2.70;1.40;;;;;;;0.29;100.00;95839.34;4883917;29;20405;-75
2020/12/28 11:47:41;;;;;;;2.28;1.15;;;;;;;0.24;100.00;95831.91;4887352;29;20045;-76
2020/12/28 11:50:44;;;;;;;5.20;1.70;;;;;;;0.20;100.00;95842.34;4888687;29;20534;-75
2020/12/28 11:53:47;;;;;;;0.63;0.63;;;;;;;0.20;100.00;95845.09;4888775;29;20060;-75
2020/12/28 11:56:50;;;;;;;9.77;2.47;;;;;;;0.23;100.00;95846.84;4894666;29;20083;-75
2020/12/28 11:59:53;;;;;;;4.47;2.45;;;;;;;0.25;100.00;95855.28;4898254;29;20100;-76
2020/12/28 12:02:56;;;;;;;14.43;1.92;;;;;;;0.25;100.00;95856.03;4899013;29;20116;-76
2020/12/28 12:05:59;;;;;;;11.60;2.83;;;;;;;0.28;100.00;95846.06;4898818;29;20048;-76
2020/12/28 12:09:35;;;;;;;24.98;4.55;;;;;;;0.28;100.00;95860.47;4898804;29;20119;-76
2020/12/28 12:12:31;;;;;;;21.58;3.92;;;;;;;0.31;100.00;95875.16;4899146;29;20043;-76
2020/12/28 12:15:41;;;;;;;7.38;2.03;;;;;;;0.38;100.00;95871.88;4898649;29;20543;-76
2020/12/28 12:18:44;;;;;;;17.65;2.80;;;;;;;0.45;100.00;95885.03;4898642;29;20043;-77
2020/12/28 12:21:47;;;;;;;2.95;1.50;;;;;;;0.56;100.00;95885.72;4898303;29;20513;-76
2020/12/28 12:24:49;;;;;;;6.13;2.38;;;;;;;0.53;100.00;95886.00;4898565;29;20100;-77
2020/12/28 12:27:52;;;;;;;6.78;2.05;;;;;;;0.46;100.00;95886.53;4898481;29;20109;-77
2020/12/28 12:30:55;;;;;;;1.65;0.93;;;;;;;0.36;100.00;95899.00;4898397;29;20099;-76
2020/12/28 12:33:58;;;;;;;6.13;2.88;;;;;;;0.29;100.00;95899.53;4898446;29;20096;-77
2020/12/28 12:37:01;;;;;;;4.80;2.78;;;;;;;0.24;100.00;95897.56;4898367;29;20139;-75
2020/12/28 12:40:04;;;;;;;7.28;2.78;;;;;;;0.21;100.00;95904.03;4886844;29;20051;-75
2020/12/28 12:43:07;;;;;;;13.98;2.95;;;;;;;0.20;100.00;95908.00;4893918;29;20471;-75
2020/12/28 12:46:12;;;;;;;11.13;3.33;;;;;;;0.18;100.00;95921.44;4879885;29;20056;-75
2020/12/28 12:49:15;;;;;;;14.07;4.32;;;;;;;0.27;100.00;95932.13;4879812;29;20430;-75
2020/12/28 12:52:20;;;;;;;13.73;3.72;;;;;;;0.47;100.00;95934.53;4879559;29;20051;-76
2020/12/28 12:55:23;;;;;;;7.35;3.42;;;;;;;0.62;100.00;95938.47;4879301;29;20104;-78
2020/12/28 12:58:26;;;;;;;16.80;3.13;;;;;;;0.75;100.00;95946.88;4879579;29;20083;-76
2020/12/28 13:01:29;;;;;;;4.18;2.35;;;;;;;0.84;100.00;95948.56;4879197;29;20047;-78
2020/12/28 13:04:31;;;;;;;14.52;3.55;;;;;;;0.87;100.00;95958.50;4879328;29;20104;-78
2020/12/28 13:07:35;;;;;;;3.50;1.65;;;;;;;0.92;100.00;95952.25;4879036;29;20056;-78
2020/12/28 13:10:38;;;;;;;6.45;2.70;;;;;;;1.00;100.00;95961.41;4879092;29;20114;-78
2020/12/28 13:13:41;;;;;;;5.03;1.05;;;;;;;1.03;100.00;95954.94;4879006;29;20047;-78
2020/12/28 13:16:47;;;;;;;2.42;1.65;;;;;;;0.99;100.00;95965.41;4879031;29;20109;-79
2020/12/28 13:19:51;;;;;;;5.93;3.22;;;;;;;0.98;100.00;95969.41;4879226;29;20097;-80
2020/12/28 13:22:53;;;;;;;9.75;2.95;;;;;;;0.96;100.00;95960.94;4879011;29;20566;-80
2020/12/28 13:25:56;;;;;;;6.10;2.42;;;;;;;0.97;100.00;95959.72;4878951;29;20468;-80
2020/12/28 13:28:59;;;;;;;2.78;1.60;;;;;;;1.02;100.00;95971.88;4879039;29;20051;-80
2020/12/28 13:32:02;;;;;;;0.90;0.73;;;;;;;1.08;100.00;95973.34;4879029;29;20063;-80
2020/12/28 13:35:04;;;;;;;12.80;2.75;;;;;;;1.00;100.00;95977.84;4878414;29;20581;-78
2020/12/28 13:38:08;;;;;;;4.03;1.92;;;;;;;0.93;100.00;95980.38;4877796;29;20509;-76
2020/12/28 13:41:11;;;;;;;5.00;2.35;;;;;;;0.81;100.00;95987.91;4876350;29;20051;-76
2020/12/28 13:44:14;;;;;;;4.07;2.42;;;;;;;0.73;100.00;95987.69;4877433;29;20040;-75
2020/12/28 13:47:17;;;;;;;6.40;2.97;;;;;;;0.74;100.00;95999.38;4878690;29;20093;-75
2020/12/28 13:50:19;;;;;;;2.88;2.35;;;;;;;0.72;100.00;96008.09;4878619;29;20108;-76
2020/12/28 13:53:22;;;;;;;6.45;2.13;;;;;;;0.67;100.00;96016.34;4878910;29;20052;-78
2020/12/28 13:56:25;;;;;;;10.02;2.00;;;;;;;0.64;100.00;96017.34;4878365;29;20052;-75
2020/12/28 13:59:28;;;;;;;7.35;2.25;;;;;;;0.56;100.00;96017.09;4878495;29;20084;-75
2020/12/28 14:02:31;;;;;;;2.25;2.05;;;;;;;0.52;100.00;96026.84;4879573;29;20087;-76
2020/12/28 14:05:34;;;;;;;10.05;2.17;;;;;;;0.52;100.00;96032.31;4878925;29;20052;-76
2020/12/28 14:08:48;;;;;;;1.52;1.02;;;;;;;0.56;100.00;96022.56;4877359;29;20565;-77
2020/12/28 14:11:51;;;;;;;8.30;3.08;;;;;;;0.61;100.00;96034.75;4878404;29;20100;-75
2020/12/28 14:14:54;;;;;;;4.90;2.97;;;;;;;0.67;100.00;96040.97;4876575;29;20071;-75
2020/12/28 14:17:57;;;;;;;18.45;2.50;;;;;;;0.68;100.00;96045.19;4878057;29;20044;-80
2020/12/28 14:21:00;;;;;;;1.30;1.20;;;;;;;0.67;100.00;96052.66;4877569;29;20047;-80